Balsam Grove, North Carolina
Current Conditions -  °F | °C
As of 2:04 PM on Monday 22 Dec 2014 (Local Time) from KAVL Reporting Station
Haze Haze  
Wind Chill: 37°   Ceiling: 800
Heat Index: 43°   Visibility: 2mi
Dew Point: 40°   Wind: 10mph
Humidity: 89%   Direction: 190°S
Pressure: 29.98"   Gusts: NA
Location:  35.23°N, 82.87°W
Report Text: KAVL 221904Z 19009KT 2SM BR OVC008 06/04 A2998 RMK AO2 T00610044
Loading
Personal Weather Stations






























Interactive Weather Map New forecast layout! Learn more

10-Day Weather Forecast

Advertisements
Track Severe Weather on mobile